This is the latest recevied weather packets stored in our database for station/object AE7MK-13. If no packets are shown the sender has not sent any weather packets the latest 10 day(s).
| Time | Temp. | Humidity | Pressure | Rain* | Wind** | Luminosity | Snow |
|---|---|---|---|---|---|---|---|
| 1778143933 | 10° C | 46% | 1014.5 hPa | 0 mm | - | - | - |
| 1778140803 | 10° C | 49% | 1014.4 hPa | 0 mm | - | - | - |
| 1778133003 | 11.11° C | 50% | 1014.6 hPa | 0 mm | - | - | - |
| 1778126403 | 13.89° C | 43% | 1015.2 hPa | 0 mm | - | - | - |
| 1778125803 | 13.89° C | 43% | 1015.2 hPa | 0 mm | - | - | - |
| 1778124603 | 13.89° C | 45% | 1015.2 hPa | 0 mm | - | - | - |
| 1778123403 | 14.44° C | 44% | 1015.2 hPa | 0 mm | - | - | - |
| 1778122803 | 15° C | 42% | 1015.1 hPa | 0 mm | - | - | - |
| 1778120403 | 16.11° C | 36% | 1015.3 hPa | 0 mm | - | - | - |
| 1778119203 | 15.56° C | 36% | 1015.3 hPa | 0 mm | - | - | - |
| 1778117403 | 16.11° C | 33% | 1015.1 hPa | 0 mm | - | - | - |
| 1778115603 | 16.11° C | 34% | 1015.2 hPa | 0 mm | - | - | - |
| 1778113803 | 16.67° C | 31% | 1015.3 hPa | 0 mm | - | - | - |
| 1778112003 | 16.67° C | 31% | 1015.2 hPa | 0 mm | - | - | - |
| 1778107203 | 18.33° C | 27% | 1015.4 hPa | 0 mm | - | - | - |
| 1778105403 | 18.89° C | 25% | 1015.6 hPa | 0 mm | - | - | - |
| 1778104203 | 19.44° C | 22% | 1015.6 hPa | 0 mm | - | - | - |
| 1778100003 | 21.11° C | 24% | 1015.3 hPa | 0 mm | - | - | - |
| 1778095803 | 21.11° C | 32% | 1015.1 hPa | 0 mm | - | - | - |
| 1778094603 | 20.56° C | 35% | 1015.4 hPa | 0 mm | - | - | - |
| 1778090403 | 20° C | 36% | 1015.4 hPa | 0 mm | - | - | - |
| 1778086804 | 18.89° C | 38% | 1015.4 hPa | 0 mm | - | - | - |
| 1778084403 | 18.33° C | 38% | 1015.4 hPa | 0 mm | - | - | - |
| 1778083203 | 17.78° C | 38% | 1015.4 hPa | 0 mm | - | - | - |
| 1778082732 | 17.78° C | 39% | 1015.3 hPa | 0 mm | - | - | - |
* Rain latest hour (hover to see other rain measurements)
** Current wind speed in m/s (hover to see current wind gust speed)